Time;durP1;ratioP1;P1;durP2;ratioP2;P2;SDS_P1;SDS_P2;PMS_P1;PMS_P2;Temp;Humidity;BMP_temperature;BMP_pressure;BME280_temperature;BME280_humidity;BME280_pressure;Samples;Min_cycle;Max_cycle;Signal;HPM_P1;HPM_P2
2023/07/13 00:00:26;;;;;;;6.13;2.25;;;;;;;;;;5034467;28;20104;-31
2023/07/13 00:02:53;;;;;;;8.75;2.58;;;;;;;;;;5034335;28;20059;-34
2023/07/13 00:05:20;;;;;;;12.70;2.20;;;;;;;;;;5034469;28;20032;-27
2023/07/13 00:07:46;;;;;;;2.95;2.33;;;;;;;;;;5034453;28;20356;-27
2023/07/13 00:10:13;;;;;;;5.57;2.42;;;;;;;;;;5034691;28;20349;-27
2023/07/13 00:12:39;;;;;;;7.88;2.58;;;;;;;;;;5034519;28;20033;-32
2023/07/13 00:15:08;;;;;;;4.97;2.72;;;;;;;;;;5034642;28;20032;-29
2023/07/13 00:17:34;;;;;;;3.30;2.50;;;;;;;;;;5035468;28;20382;-27
2023/07/13 00:20:00;;;;;;;6.95;2.08;;;;;;;;;;5038272;28;20075;-30
2023/07/13 00:22:26;;;;;;;8.43;3.28;;;;;;;;;;5038201;28;20097;-30
2023/07/13 00:24:55;;;;;;;8.90;2.20;;;;;;;;;;5038172;28;20455;-29
2023/07/13 00:27:22;;;;;;;4.10;1.90;;;;;;;;;;5038230;28;20033;-27
2023/07/13 00:29:48;;;;;;;6.40;2.17;;;;;;;;;;5038167;28;20536;-30
2023/07/13 00:32:14;;;;;;;6.32;2.17;;;;;;;;;;5038190;28;20318;-29
2023/07/13 00:34:40;;;;;;;8.05;2.35;;;;;;;;;;5038376;28;20179;-28
2023/07/13 00:37:07;;;;;;;7.45;2.35;;;;;;;;;;5038263;28;20029;-28
2023/07/13 00:39:34;;;;;;;5.22;2.25;;;;;;;;;;5020560;28;20083;-29
2023/07/13 00:42:01;;;;;;;8.88;2.42;;;;;;;;;;5037877;28;20025;-33
2023/07/13 00:44:27;;;;;;;8.88;2.10;;;;;;;;;;5037842;28;20029;-29
2023/07/13 00:46:55;;;;;;;3.78;2.20;;;;;;;;;;5037823;28;20021;-31
2023/07/13 00:49:25;;;;;;;4.78;2.05;;;;;;;;;;5038028;28;20398;-33
2023/07/13 00:51:55;;;;;;;6.18;2.03;;;;;;;;;;5037559;28;20030;-30
2023/07/13 00:54:23;;;;;;;8.85;2.60;;;;;;;;;;5038249;28;20101;-28
2023/07/13 00:56:51;;;;;;;8.02;2.92;;;;;;;;;;5037938;28;20025;-30
2023/07/13 00:59:19;;;;;;;3.35;1.90;;;;;;;;;;5020205;28;20041;-27
2023/07/13 01:01:45;;;;;;;5.60;2.13;;;;;;;;;;5037577;28;20330;-28
2023/07/13 01:04:12;;;;;;;8.95;2.80;;;;;;;;;;5019772;28;20369;-30
2023/07/13 01:06:39;;;;;;;8.00;2.08;;;;;;;;;;5037378;28;20030;-31
2023/07/13 01:09:07;;;;;;;3.58;2.22;;;;;;;;;;5019946;28;20025;-28
2023/07/13 01:11:34;;;;;;;9.77;2.70;;;;;;;;;;5037718;28;20032;-27
2023/07/13 01:14:01;;;;;;;3.63;2.35;;;;;;;;;;5037263;28;20120;-32
2023/07/13 01:16:31;;;;;;;6.90;3.17;;;;;;;;;;5037334;28;20049;-31
2023/07/13 01:18:58;;;;;;;9.45;2.45;;;;;;;;;;5037539;28;20034;-30
2023/07/13 01:21:25;;;;;;;3.83;2.72;;;;;;;;;;5037155;28;20033;-28
2023/07/13 01:23:51;;;;;;;5.65;2.08;;;;;;;;;;5037076;28;20018;-30
2023/07/13 01:26:18;;;;;;;9.00;2.10;;;;;;;;;;5037105;28;20026;-32
2023/07/13 01:28:44;;;;;;;4.43;1.90;;;;;;;;;;5036606;28;20022;-28
2023/07/13 01:31:11;;;;;;;4.15;2.15;;;;;;;;;;5037313;28;20357;-28
2023/07/13 01:33:39;;;;;;;6.68;2.72;;;;;;;;;;5037181;28;20054;-28
2023/07/13 01:36:06;;;;;;;8.75;2.30;;;;;;;;;;5037233;28;20385;-27
2023/07/13 01:38:32;;;;;;;8.70;2.72;;;;;;;;;;5019472;28;20500;-34
2023/07/13 01:40:59;;;;;;;7.50;2.28;;;;;;;;;;5037435;28;20519;-28
2023/07/13 01:43:25;;;;;;;5.88;2.55;;;;;;;;;;5036881;28;20030;-28
2023/07/13 01:45:51;;;;;;;4.75;2.03;;;;;;;;;;5037002;28;20029;-26
2023/07/13 01:48:17;;;;;;;4.20;2.25;;;;;;;;;;5037390;28;20449;-27
2023/07/13 01:50:43;;;;;;;5.68;2.67;;;;;;;;;;5036988;28;20092;-30
2023/07/13 01:53:10;;;;;;;5.18;2.03;;;;;;;;;;5036605;28;20064;-28
2023/07/13 01:55:37;;;;;;;5.90;1.80;;;;;;;;;;5036598;28;20021;-28
2023/07/13 01:58:03;;;;;;;5.63;2.35;;;;;;;;;;5036493;28;20090;-32
2023/07/13 02:00:30;;;;;;;3.47;2.03;;;;;;;;;;5036486;28;20079;-31
2023/07/13 02:02:56;;;;;;;6.45;2.17;;;;;;;;;;5036426;28;20042;-30
2023/07/13 02:05:22;;;;;;;3.83;1.75;;;;;;;;;;5036683;28;20356;-29
2023/07/13 02:07:49;;;;;;;4.13;2.03;;;;;;;;;;5036914;28;20028;-27
2023/07/13 02:10:15;;;;;;;4.28;2.10;;;;;;;;;;5036571;28;20083;-28
2023/07/13 02:12:42;;;;;;;3.65;1.85;;;;;;;;;;5036378;28;20025;-26
2023/07/13 02:15:09;;;;;;;6.07;2.03;;;;;;;;;;5036236;28;20017;-25
2023/07/13 02:17:36;;;;;;;2.33;1.70;;;;;;;;;;5036434;28;20461;-28
2023/07/13 02:20:03;;;;;;;4.78;2.15;;;;;;;;;;5036389;28;20108;-25
2023/07/13 02:22:29;;;;;;;4.82;2.20;;;;;;;;;;5036415;28;20021;-29
2023/07/13 02:24:56;;;;;;;2.60;1.67;;;;;;;;;;5036700;28;20333;-30
2023/07/13 02:27:22;;;;;;;3.35;1.98;;;;;;;;;;5036180;28;20030;-30
2023/07/13 02:29:51;;;;;;;3.10;1.90;;;;;;;;;;5036638;28;20441;-29
2023/07/13 02:32:17;;;;;;;3.13;1.95;;;;;;;;;;5035724;28;20033;-26
2023/07/13 02:34:43;;;;;;;2.83;1.92;;;;;;;;;;5036053;28;20018;-27
2023/07/13 02:37:09;;;;;;;2.47;1.77;;;;;;;;;;5035733;28;20080;-26
2023/07/13 02:39:36;;;;;;;5.63;2.58;;;;;;;;;;5035774;28;20030;-28
2023/07/13 02:42:03;;;;;;;6.30;2.28;;;;;;;;;;5035339;28;20468;-30
2023/07/13 02:44:29;;;;;;;3.22;2.22;;;;;;;;;;5035805;28;20044;-30
2023/07/13 02:46:55;;;;;;;4.18;2.33;;;;;;;;;;5035579;28;20071;-30
2023/07/13 02:49:21;;;;;;;4.15;2.00;;;;;;;;;;5035190;28;20361;-31
2023/07/13 02:51:48;;;;;;;2.50;1.80;;;;;;;;;;5035782;28;20080;-30
2023/07/13 02:54:14;;;;;;;6.07;1.83;;;;;;;;;;5035417;28;20029;-29
2023/07/13 02:56:41;;;;;;;4.53;1.90;;;;;;;;;;5035699;28;20344;-28
2023/07/13 02:59:07;;;;;;;2.72;1.90;;;;;;;;;;5018079;28;20025;-27
2023/07/13 03:01:35;;;;;;;5.43;2.13;;;;;;;;;;5035886;28;20400;-27
2023/07/13 03:04:01;;;;;;;3.53;1.75;;;;;;;;;;5034918;28;20076;-29
2023/07/13 03:06:30;;;;;;;5.13;2.08;;;;;;;;;;5035594;28;20040;-26
2023/07/13 03:08:56;;;;;;;9.05;2.13;;;;;;;;;;5035256;28;20021;-32
2023/07/13 03:11:23;;;;;;;2.65;1.85;;;;;;;;;;5035467;28;20103;-29
2023/07/13 03:13:49;;;;;;;1.85;1.27;;;;;;;;;;5035103;28;20372;-29
2023/07/13 03:16:16;;;;;;;1.70;1.60;;;;;;;;;;5035897;28;20037;-30
2023/07/13 03:18:42;;;;;;;3.17;2.10;;;;;;;;;;5035309;28;20389;-27
2023/07/13 03:21:08;;;;;;;3.13;1.58;;;;;;;;;;5035229;28;20036;-28
2023/07/13 03:23:35;;;;;;;2.97;1.67;;;;;;;;;;5034872;28;20050;-31
2023/07/13 03:26:02;;;;;;;5.88;1.65;;;;;;;;;;5035239;28;20033;-30
2023/07/13 03:28:28;;;;;;;2.03;1.50;;;;;;;;;;5035404;28;20104;-28
2023/07/13 03:31:04;;;;;;;3.40;1.90;;;;;;;;;;5035144;28;20032;-30
2023/07/13 03:33:31;;;;;;;4.55;1.58;;;;;;;;;;5035018;28;20364;-28
2023/07/13 03:35:58;;;;;;;3.45;1.63;;;;;;;;;;5034750;28;20041;-31
2023/07/13 03:38:24;;;;;;;3.30;1.80;;;;;;;;;;5017344;28;20025;-29
2023/07/13 03:40:51;;;;;;;5.53;2.05;;;;;;;;;;5035261;28;20055;-30
2023/07/13 03:43:17;;;;;;;3.45;1.85;;;;;;;;;;5034839;28;20544;-33
2023/07/13 03:45:43;;;;;;;2.38;1.48;;;;;;;;;;5017268;28;20475;-30
2023/07/13 03:48:10;;;;;;;2.20;1.50;;;;;;;;;;5034636;28;20113;-28
2023/07/13 03:50:36;;;;;;;3.40;2.08;;;;;;;;;;5034500;28;20108;-27
2023/07/13 03:53:02;;;;;;;3.70;2.05;;;;;;;;;;5034344;28;20021;-25
2023/07/13 03:55:28;;;;;;;6.43;2.03;;;;;;;;;;5017071;28;20025;-31
2023/07/13 03:57:58;;;;;;;3.30;1.80;;;;;;;;;;5034502;28;20021;-30
2023/07/13 04:00:24;;;;;;;2.75;1.80;;;;;;;;;;5035135;28;20022;-30
2023/07/13 04:02:50;;;;;;;6.45;2.00;;;;;;;;;;5034405;28;20457;-27
2023/07/13 04:05:17;;;;;;;3.80;1.67;;;;;;;;;;5034394;28;20025;-29
2023/07/13 04:07:43;;;;;;;3.00;1.63;;;;;;;;;;5034385;28;20022;-28
2023/07/13 04:10:10;;;;;;;5.10;1.98;;;;;;;;;;5034378;28;20018;-28
2023/07/13 04:12:36;;;;;;;5.45;2.65;;;;;;;;;;5034143;28;20014;-26
2023/07/13 04:15:02;;;;;;;2.85;1.88;;;;;;;;;;5016932;28;20033;-28
2023/07/13 04:17:28;;;;;;;4.25;1.92;;;;;;;;;;5034593;28;20025;-31
2023/07/13 04:19:55;;;;;;;4.72;2.05;;;;;;;;;;5034405;28;20342;-32
2023/07/13 04:22:21;;;;;;;5.82;1.83;;;;;;;;;;5034165;28;20025;-28
2023/07/13 04:24:47;;;;;;;2.20;1.40;;;;;;;;;;5034052;28;20036;-29
2023/07/13 04:27:13;;;;;;;3.00;1.95;;;;;;;;;;5034297;28;20056;-30
2023/07/13 04:29:39;;;;;;;4.28;2.00;;;;;;;;;;5034111;28;20044;-31
2023/07/13 04:32:06;;;;;;;4.00;1.92;;;;;;;;;;5017349;28;20025;-37
2023/07/13 04:34:33;;;;;;;5.22;1.58;;;;;;;;;;5034240;28;20491;-31
2023/07/13 04:36:59;;;;;;;5.85;2.70;;;;;;;;;;5033977;28;20053;-31
2023/07/13 04:39:25;;;;;;;4.50;1.50;;;;;;;;;;5016506;28;20021;-34
2023/07/13 04:41:51;;;;;;;6.25;2.08;;;;;;;;;;5033906;28;20083;-31
2023/07/13 04:44:17;;;;;;;5.40;1.83;;;;;;;;;;5034102;28;20105;-29
2023/07/13 04:46:43;;;;;;;4.95;1.88;;;;;;;;;;5034163;28;20113;-27
2023/07/13 04:49:10;;;;;;;6.50;2.58;;;;;;;;;;5034578;28;20100;-25
2023/07/13 04:51:36;;;;;;;5.35;2.20;;;;;;;;;;5017027;28;20054;-29
2023/07/13 04:54:02;;;;;;;11.13;2.80;;;;;;;;;;5033824;28;20056;-28
2023/07/13 04:56:30;;;;;;;10.35;2.00;;;;;;;;;;5033778;28;20025;-31
2023/07/13 04:58:56;;;;;;;3.65;2.65;;;;;;;;;;5033802;28;20067;-30
2023/07/13 05:01:22;;;;;;;4.20;1.98;;;;;;;;;;5034081;28;20026;-31
2023/07/13 05:03:48;;;;;;;5.15;2.00;;;;;;;;;;5034872;28;20079;-30
2023/07/13 05:06:15;;;;;;;3.90;1.88;;;;;;;;;;5037324;28;20033;-30
2023/07/13 05:08:41;;;;;;;12.50;2.60;;;;;;;;;;5037934;28;20091;-34
2023/07/13 05:11:07;;;;;;;5.60;1.90;;;;;;;;;;5037088;28;20021;-28
2023/07/13 05:13:33;;;;;;;2.50;1.88;;;;;;;;;;5037128;28;20025;-26
2023/07/13 05:16:01;;;;;;;7.20;1.95;;;;;;;;;;5037094;28;20352;-28
2023/07/13 05:18:28;;;;;;;6.55;2.38;;;;;;;;;;5037329;28;20036;-33
2023/07/13 05:21:05;;;;;;;7.15;2.55;;;;;;;;;;5037244;28;20033;-30
2023/07/13 05:23:32;;;;;;;4.78;1.98;;;;;;;;;;5037028;28;20024;-31
2023/07/13 05:25:58;;;;;;;7.15;2.63;;;;;;;;;;5036857;28;20030;-30
2023/07/13 05:28:25;;;;;;;7.70;2.50;;;;;;;;;;5037001;28;20456;-30
2023/07/13 05:30:52;;;;;;;7.85;2.28;;;;;;;;;;5036775;28;20032;-30
2023/07/13 05:33:18;;;;;;;5.68;2.15;;;;;;;;;;5036894;28;20032;-29
2023/07/13 05:35:44;;;;;;;9.00;3.00;;;;;;;;;;5036948;28;20026;-29
2023/07/13 05:38:10;;;;;;;9.15;2.60;;;;;;;;;;5036697;28;20040;-30
2023/07/13 05:40:36;;;;;;;10.40;2.17;;;;;;;;;;5036620;28;20030;-29
2023/07/13 05:43:03;;;;;;;6.13;2.50;;;;;;;;;;5036654;28;20030;-29
2023/07/13 05:45:29;;;;;;;9.00;2.70;;;;;;;;;;5036825;28;20452;-33
2023/07/13 05:47:55;;;;;;;5.10;2.40;;;;;;;;;;5036597;28;20028;-30
2023/07/13 05:50:21;;;;;;;10.07;3.08;;;;;;;;;;5019602;28;20021;-31
2023/07/13 05:52:48;;;;;;;5.28;2.10;;;;;;;;;;5036663;28;20361;-28
2023/07/13 05:55:14;;;;;;;6.05;2.03;;;;;;;;;;5036485;28;20093;-29
2023/07/13 05:57:40;;;;;;;5.35;2.38;;;;;;;;;;5036237;28;20032;-32
2023/07/13 06:00:07;;;;;;;12.68;2.63;;;;;;;;;;5036652;28;20021;-31
2023/07/13 06:02:33;;;;;;;7.40;2.15;;;;;;;;;;5472261;22;20044;-28
2023/07/13 06:04:59;;;;;;;9.55;2.25;;;;;;;;;;5056164;28;20048;-28
2023/07/13 06:07:25;;;;;;;11.70;3.15;;;;;;;;;;5056677;28;20025;-30
2023/07/13 06:09:51;;;;;;;6.40;2.38;;;;;;;;;;5056596;28;20111;-31
2023/07/13 06:12:18;;;;;;;7.57;2.33;;;;;;;;;;5056236;28;20028;-30
2023/07/13 06:14:44;;;;;;;6.80;2.33;;;;;;;;;;5056022;28;20455;-32
2023/07/13 06:17:10;;;;;;;10.90;2.65;;;;;;;;;;5056556;28;20037;-30
2023/07/13 06:19:36;;;;;;;25.20;2.47;;;;;;;;;;5055998;28;20033;-27
2023/07/13 06:22:03;;;;;;;7.03;2.17;;;;;;;;;;5056120;28;20402;-30
2023/07/13 06:24:29;;;;;;;3.35;2.20;;;;;;;;;;5038748;28;20037;-31
2023/07/13 06:26:55;;;;;;;6.32;2.20;;;;;;;;;;5056137;28;20021;-29
2023/07/13 06:29:21;;;;;;;5.05;2.10;;;;;;;;;;5055837;28;20082;-29
2023/07/13 06:31:48;;;;;;;9.82;2.50;;;;;;;;;;5055728;28;20044;-28
2023/07/13 06:34:14;;;;;;;13.38;2.70;;;;;;;;;;5055748;28;20025;-31
2023/07/13 06:36:40;;;;;;;7.90;2.60;;;;;;;;;;5055587;28;20372;-29
2023/07/13 06:39:07;;;;;;;11.15;2.25;;;;;;;;;;5055619;28;20029;-32
2023/07/13 06:41:34;;;;;;;5.70;1.52;;;;;;;;;;5055525;28;20040;-28
2023/07/13 06:44:00;;;;;;;6.38;2.35;;;;;;;;;;5055262;28;20090;-29
2023/07/13 06:46:26;;;;;;;7.07;2.90;;;;;;;;;;5055616;28;20083;-31
2023/07/13 06:48:52;;;;;;;11.50;2.70;;;;;;;;;;5055616;28;20021;-32
2023/07/13 06:51:19;;;;;;;9.43;2.53;;;;;;;;;;5055396;28;20029;-28
2023/07/13 06:53:45;;;;;;;8.05;2.45;;;;;;;;;;5037701;28;20187;-30
2023/07/13 06:56:11;;;;;;;9.80;2.40;;;;;;;;;;5055648;28;20028;-29
2023/07/13 06:58:37;;;;;;;5.25;2.72;;;;;;;;;;5037703;28;20467;-28
2023/07/13 07:01:05;;;;;;;16.27;2.90;;;;;;;;;;5055613;28;20371;-31
2023/07/13 07:03:32;;;;;;;7.00;2.47;;;;;;;;;;5054879;28;20053;-31
2023/07/13 07:06:14;;;;;;;5.32;2.40;;;;;;;;;;5056083;28;20037;-29
2023/07/13 07:08:41;;;;;;;11.27;2.70;;;;;;;;;;5055223;28;20460;-28
2023/07/13 07:11:09;;;;;;;5.65;2.40;;;;;;;;;;5055056;28;20453;-31
2023/07/13 07:13:35;;;;;;;14.50;3.10;;;;;;;;;;5054806;28;20029;-31
2023/07/13 07:16:02;;;;;;;6.53;3.40;;;;;;;;;;5037350;28;20040;-29
2023/07/13 07:18:28;;;;;;;17.40;3.05;;;;;;;;;;5054826;28;20021;-30
2023/07/13 07:20:54;;;;;;;7.00;2.65;;;;;;;;;;5055323;28;20444;-28
2023/07/13 07:23:20;;;;;;;9.52;2.80;;;;;;;;;;5054716;28;20024;-27
2023/07/13 07:25:47;;;;;;;8.80;3.05;;;;;;;;;;5054932;28;20091;-32
2023/07/13 07:28:17;;;;;;;14.15;2.67;;;;;;;;;;5054990;28;20102;-30
2023/07/13 07:30:44;;;;;;;9.52;2.53;;;;;;;;;;5054882;28;20087;-30
2023/07/13 07:33:10;;;;;;;9.90;2.78;;;;;;;;;;5054558;28;20337;-30
2023/07/13 07:35:37;;;;;;;12.25;3.08;;;;;;;;;;5054759;28;20017;-30
2023/07/13 07:38:03;;;;;;;9.80;2.70;;;;;;;;;;5054732;28;20017;-28
2023/07/13 07:40:31;;;;;;;8.52;3.00;;;;;;;;;;5054420;28;20116;-27
2023/07/13 07:42:57;;;;;;;21.48;3.80;;;;;;;;;;5054325;28;20060;-27
2023/07/13 07:45:24;;;;;;;24.02;3.83;;;;;;;;;;5054408;28;20033;-31
2023/07/13 07:47:50;;;;;;;14.23;4.10;;;;;;;;;;5054589;28;20444;-28
2023/07/13 07:50:16;;;;;;;7.80;3.40;;;;;;;;;;5054920;28;20104;-32
2023/07/13 07:52:44;;;;;;;15.73;2.65;;;;;;;;;;5036861;28;20100;-27
2023/07/13 07:55:10;;;;;;;12.85;3.78;;;;;;;;;;5054661;28;20032;-31
2023/07/13 07:57:36;;;;;;;15.18;2.88;;;;;;;;;;5054702;28;20055;-28
2023/07/13 08:00:03;;;;;;;16.67;3.13;;;;;;;;;;5036760;28;20029;-32
2023/07/13 08:02:29;;;;;;;7.15;2.88;;;;;;;;;;5053921;28;20086;-31
2023/07/13 08:04:55;;;;;;;11.30;3.25;;;;;;;;;;5054513;28;20029;-29
2023/07/13 08:07:21;;;;;;;12.07;3.42;;;;;;;;;;5054236;28;20033;-31
2023/07/13 08:09:52;;;;;;;11.77;4.72;;;;;;;;;;5054275;28;20017;-28
2023/07/13 08:12:18;;;;;;;14.63;3.58;;;;;;;;;;5036610;28;20462;-30
2023/07/13 08:14:44;;;;;;;15.45;3.30;;;;;;;;;;5054334;28;20036;-25
2023/07/13 08:17:10;;;;;;;17.05;4.47;;;;;;;;;;5054414;28;20139;-28
2023/07/13 08:19:36;;;;;;;29.52;4.78;;;;;;;;;;5054940;28;20039;-31
2023/07/13 08:22:03;;;;;;;13.25;4.20;;;;;;;;;;5054619;28;20035;-26
2023/07/13 08:24:29;;;;;;;14.07;2.88;;;;;;;;;;5036497;28;20507;-31
2023/07/13 08:26:55;;;;;;;14.57;3.65;;;;;;;;;;5054059;28;20087;-32
2023/07/13 08:29:21;;;;;;;15.85;3.22;;;;;;;;;;5054332;28;20025;-28
2023/07/13 08:31:48;;;;;;;22.13;3.53;;;;;;;;;;5054275;28;20329;-32
2023/07/13 08:34:14;;;;;;;25.15;4.63;;;;;;;;;;5054357;28;20057;-31
2023/07/13 08:36:41;;;;;;;17.60;3.50;;;;;;;;;;5054097;28;20096;-31
2023/07/13 08:39:07;;;;;;;12.30;3.28;;;;;;;;;;5055979;28;20098;-29
2023/07/13 08:41:34;;;;;;;13.20;4.40;;;;;;;;;;5057848;28;20082;-30
2023/07/13 08:44:01;;;;;;;14.57;3.83;;;;;;;;;;5057494;28;20082;-33
2023/07/13 08:46:28;;;;;;;14.57;3.95;;;;;;;;;;5058017;28;20021;-30
2023/07/13 08:49:02;;;;;;;17.50;6.55;;;;;;;;;;5057749;28;20044;-32
2023/07/13 08:51:37;;;;;;;13.02;3.65;;;;;;;;;;5057998;28;20025;-30
2023/07/13 08:54:05;;;;;;;21.73;3.53;;;;;;;;;;5057566;28;20029;-29
2023/07/13 08:56:33;;;;;;;16.75;4.18;;;;;;;;;;5057841;28;20025;-30
2023/07/13 08:59:02;;;;;;;10.23;3.22;;;;;;;;;;5057473;28;20036;-30
2023/07/13 09:01:45;;;;;;;19.48;3.40;;;;;;;;;;5057775;28;20024;-27
2023/07/13 09:04:15;;;;;;;13.40;3.28;;;;;;;;;;5039688;28;20127;-27
2023/07/13 09:06:47;;;;;;;6.90;2.50;;;;;;;;;;5057358;28;20013;-30
2023/07/13 09:09:37;;;;;;;15.57;3.50;;;;;;;;;;5057635;28;20021;-31
2023/07/13 09:12:14;;;;;;;10.18;2.97;;;;;;;;;;5051780;28;20033;-32
2023/07/13 09:14:49;;;;;;;9.45;3.80;;;;;;;;;;5057287;28;20056;-32
2023/07/13 09:17:18;;;;;;;11.20;2.40;;;;;;;;;;5057183;28;20044;-38
2023/07/13 09:19:46;;;;;;;8.75;2.67;;;;;;;;;;5057430;28;20049;-28
2023/07/13 09:22:16;;;;;;;7.07;2.83;;;;;;;;;;5057246;28;20100;-26
2023/07/13 09:24:48;;;;;;;13.35;3.60;;;;;;;;;;5056853;28;20044;-27
2023/07/13 09:27:22;;;;;;;12.55;4.47;;;;;;;;;;5057125;28;20088;-29
2023/07/13 09:29:51;;;;;;;12.40;3.60;;;;;;;;;;5056905;28;20475;-27
2023/07/13 09:32:19;;;;;;;12.88;3.20;;;;;;;;;;5056895;28;20025;-29
2023/07/13 09:34:51;;;;;;;7.28;2.67;;;;;;;;;;5057040;28;20376;-32
2023/07/13 09:37:17;;;;;;;12.45;3.58;;;;;;;;;;5057108;28;20409;-27
2023/07/13 09:39:43;;;;;;;4.80;2.55;;;;;;;;;;5056762;28;20083;-29
2023/07/13 09:42:13;;;;;;;19.05;3.22;;;;;;;;;;5056358;28;20036;-27
2023/07/13 09:44:52;;;;;;;5.20;2.88;;;;;;;;;;5038810;28;20063;-28
2023/07/13 09:47:24;;;;;;;11.10;2.65;;;;;;;;;;5056513;28;20021;-29
2023/07/13 09:50:10;;;;;;;11.25;3.42;;;;;;;;;;5038541;28;20025;-31
2023/07/13 09:52:44;;;;;;;15.57;3.05;;;;;;;;;;5055989;28;20467;-30
2023/07/13 09:55:29;;;;;;;3.83;1.95;;;;;;;;;;5038892;28;20029;-31
2023/07/13 09:57:55;;;;;;;18.73;4.13;;;;;;;;;;5057026;28;20029;-29
2023/07/13 10:00:24;;;;;;;19.67;3.65;;;;;;;;;;5038745;28;20086;-27
2023/07/13 10:02:59;;;;;;;12.77;3.00;;;;;;;;;;5056167;28;20049;-31
2023/07/13 10:05:25;;;;;;;8.02;2.97;;;;;;;;;;5056104;28;20068;-30
2023/07/13 10:07:52;;;;;;;5.68;2.42;;;;;;;;;;5056162;28;20021;-31
2023/07/13 10:10:20;;;;;;;7.80;2.75;;;;;;;;;;5056274;28;20025;-28
2023/07/13 10:12:47;;;;;;;10.20;3.67;;;;;;;;;;5055817;28;20459;-29
2023/07/13 10:15:18;;;;;;;15.85;3.42;;;;;;;;;;5056484;28;20025;-29
2023/07/13 10:17:45;;;;;;;11.45;3.13;;;;;;;;;;5055908;28;20037;-28
2023/07/13 10:20:14;;;;;;;6.25;3.20;;;;;;;;;;5055956;28;20083;-31
2023/07/13 10:22:53;;;;;;;7.78;3.17;;;;;;;;;;5056033;28;20033;-29
2023/07/13 10:25:22;;;;;;;10.27;2.83;;;;;;;;;;5056285;28;20406;-30
2023/07/13 10:27:54;;;;;;;13.30;2.70;;;;;;;;;;5055761;28;20028;-31
2023/07/13 10:30:20;;;;;;;8.57;3.00;;;;;;;;;;5056373;28;20021;-28
2023/07/13 10:32:47;;;;;;;10.30;3.65;;;;;;;;;;5055567;28;20025;-30
2023/07/13 10:35:14;;;;;;;11.60;3.88;;;;;;;;;;5037978;28;20363;-30
2023/07/13 10:38:06;;;;;;;7.13;2.45;;;;;;;;;;5055698;28;20033;-32
2023/07/13 10:40:32;;;;;;;;;;;;;;;;;;5056067;28;20021;-31
2023/07/13 10:42:59;;;;;;;5.88;2.50;;;;;;;;;;5056185;28;19915;-29
2023/07/13 10:45:27;;;;;;;5.63;2.28;;;;;;;;;;5056192;28;20336;-27
2023/07/13 10:47:55;;;;;;;12.10;3.05;;;;;;;;;;5055700;28;20082;-27
2023/07/13 10:50:25;;;;;;;7.32;2.95;;;;;;;;;;5055281;28;20025;-31
2023/07/13 10:53:01;;;;;;;17.27;3.57;;;;;;;;;;5055230;28;20036;-33
2023/07/13 10:55:36;;;;;;;15.68;3.10;;;;;;;;;;5055185;28;20028;-31
2023/07/13 10:58:04;;;;;;;10.35;2.63;;;;;;;;;;5054989;28;20029;-32
2023/07/13 11:00:43;;;;;;;17.20;3.15;;;;;;;;;;5037195;28;20021;-28
2023/07/13 11:03:14;;;;;;;18.83;3.95;;;;;;;;;;5054683;28;20040;-31
2023/07/13 11:05:41;;;;;;;12.38;3.67;;;;;;;;;;5055349;28;20029;-30
2023/07/13 11:08:16;;;;;;;9.15;2.97;;;;;;;;;;5055264;28;20326;-30
2023/07/13 11:11:00;;;;;;;10.90;2.90;;;;;;;;;;5055456;28;20079;-26
2023/07/13 11:13:37;;;;;;;13.55;4.15;;;;;;;;;;5055212;28;20017;-30
2023/07/13 11:16:14;;;;;;;12.45;3.10;;;;;;;;;;5055236;28;20040;-29
2023/07/13 11:18:40;;;;;;;8.13;2.85;;;;;;;;;;5054871;28;20031;-31
2023/07/13 11:21:18;;;;;;;11.68;3.20;;;;;;;;;;5055039;28;20025;-32
2023/07/13 11:23:47;;;;;;;13.20;4.38;;;;;;;;;;5054652;28;20091;-31
2023/07/13 11:26:31;;;;;;;14.77;2.88;;;;;;;;;;5037400;28;20020;-32
2023/07/13 11:28:58;;;;;;;16.55;3.58;;;;;;;;;;5055112;28;20021;-29
2023/07/13 11:31:24;;;;;;;14.75;3.63;;;;;;;;;;5054610;28;20044;-30
2023/07/13 11:33:53;;;;;;;15.65;3.38;;;;;;;;;;5054648;28;20407;-29
2023/07/13 11:36:22;;;;;;;7.82;2.63;;;;;;;;;;5054556;28;20033;-30
2023/07/13 11:39:07;;;;;;;11.98;3.35;;;;;;;;;;5037111;28;20028;-30
2023/07/13 11:41:38;;;;;;;9.43;3.17;;;;;;;;;;5054459;28;20363;-30
2023/07/13 11:44:04;;;;;;;;;;;;;;;;;;5054575;28;20107;-27
2023/07/13 11:46:31;;;;;;;19.63;3.53;;;;;;;;;;5054489;28;19940;-30
2023/07/13 11:48:57;;;;;;;10.85;4.13;;;;;;;;;;5054377;28;20025;-27
2023/07/13 11:51:33;;;;;;;8.57;3.15;;;;;;;;;;5054450;28;20102;-31
2023/07/13 11:54:01;;;;;;;15.93;3.83;;;;;;;;;;5054681;28;20021;-30
2023/07/13 11:56:28;;;;;;;22.77;3.95;;;;;;;;;;5054913;28;20021;-31
2023/07/13 11:58:55;;;;;;;11.23;2.67;;;;;;;;;;5054564;28;20100;-31
2023/07/13 12:01:32;;;;;;;10.48;3.95;;;;;;;;;;5054480;28;20029;-28
2023/07/13 12:04:00;;;;;;;11.95;3.35;;;;;;;;;;5054077;28;20072;-28
2023/07/13 12:06:28;;;;;;;12.10;2.78;;;;;;;;;;5054449;28;20405;-27
2023/07/13 12:09:03;;;;;;;13.20;4.68;;;;;;;;;;5054079;28;20037;-30
2023/07/13 12:11:29;;;;;;;7.72;3.28;;;;;;;;;;5054435;28;20021;-30
2023/07/13 12:13:56;;;;;;;11.50;2.60;;;;;;;;;;5057396;28;20029;-28
2023/07/13 12:16:32;;;;;;;12.60;4.28;;;;;;;;;;5058466;28;20029;-27
2023/07/13 12:19:00;;;;;;;13.15;3.58;;;;;;;;;;5058394;28;20063;-28
2023/07/13 12:21:38;;;;;;;14.88;3.65;;;;;;;;;;5059024;28;20021;-29
2023/07/13 12:24:05;;;;;;;21.58;4.20;;;;;;;;;;5058099;28;20301;-29
2023/07/13 12:26:32;;;;;;;14.35;3.17;;;;;;;;;;5058025;28;20020;-29
2023/07/13 12:29:00;;;;;;;15.80;4.13;;;;;;;;;;5058092;28;20025;-32
2023/07/13 12:31:32;;;;;;;15.05;3.38;;;;;;;;;;5057965;28;20103;-28
2023/07/13 12:33:59;;;;;;;7.43;3.55;;;;;;;;;;5057846;28;20029;-32
2023/07/13 12:36:25;;;;;;;9.98;3.33;;;;;;;;;;5058069;28;20029;-33
2023/07/13 12:38:52;;;;;;;9.27;3.70;;;;;;;;;;5057826;28;20463;-28
2023/07/13 12:41:18;;;;;;;12.65;3.25;;;;;;;;;;5057621;28;20102;-28
2023/07/13 12:43:45;;;;;;;15.85;3.67;;;;;;;;;;5057588;28;20411;-32
2023/07/13 12:46:24;;;;;;;11.25;3.50;;;;;;;;;;5057557;28;20092;-30
2023/07/13 12:48:53;;;;;;;20.13;3.38;;;;;;;;;;5057752;28;20029;-30
2023/07/13 12:51:22;;;;;;;13.60;3.03;;;;;;;;;;5057848;28;20078;-30
2023/07/13 12:53:53;;;;;;;10.00;3.72;;;;;;;;;;5057479;28;20024;-27
2023/07/13 12:56:22;;;;;;;10.05;3.13;;;;;;;;;;5057462;28;20407;-31
2023/07/13 12:58:54;;;;;;;10.00;3.40;;;;;;;;;;5057712;28;20028;-28
2023/07/13 13:01:22;;;;;;;11.20;2.97;;;;;;;;;;5057461;28;20056;-28
2023/07/13 13:03:53;;;;;;;11.52;4.05;;;;;;;;;;5039391;28;20071;-30
2023/07/13 13:06:19;;;;;;;;;;;;;;;;;;5058067;28;20017;-29
2023/07/13 13:08:49;;;;;;;10.13;3.40;;;;;;;;;;5057478;28;19916;-30
2023/07/13 13:11:16;;;;;;;12.15;3.15;;;;;;;;;;5057594;28;20104;-29
2023/07/13 13:13:43;;;;;;;14.82;3.60;;;;;;;;;;5057070;28;20086;-30
2023/07/13 13:16:31;;;;;;;14.88;4.00;;;;;;;;;;5057171;28;20025;-30
2023/07/13 13:18:58;;;;;;;19.52;4.35;;;;;;;;;;5057095;28;20032;-28
2023/07/13 13:21:25;;;;;;;17.13;4.15;;;;;;;;;;5057385;28;20452;-30
2023/07/13 13:23:53;;;;;;;10.90;3.80;;;;;;;;;;5056419;28;20032;-30
2023/07/13 13:26:19;;;;;;;23.58;5.15;;;;;;;;;;5056870;28;20036;-29
2023/07/13 13:28:47;;;;;;;11.75;2.65;;;;;;;;;;5056933;28;20044;-32
2023/07/13 13:31:15;;;;;;;12.88;3.10;;;;;;;;;;5057248;28;20025;-33
2023/07/13 13:33:45;;;;;;;12.20;4.15;;;;;;;;;;5056813;28;20044;-30
2023/07/13 13:36:16;;;;;;;18.98;4.32;;;;;;;;;;5056828;28;20025;-30
2023/07/13 13:38:42;;;;;;;21.98;4.05;;;;;;;;;;5056891;28;20025;-30
2023/07/13 13:41:10;;;;;;;19.80;4.57;;;;;;;;;;5056718;28;20021;-29
2023/07/13 13:43:36;;;;;;;13.52;3.95;;;;;;;;;;5056755;28;20029;-30
2023/07/13 13:46:04;;;;;;;10.45;4.47;;;;;;;;;;5056735;28;20025;-28
2023/07/13 13:48:32;;;;;;;19.73;3.83;;;;;;;;;;5056880;28;20020;-30
2023/07/13 13:50:59;;;;;;;19.48;4.18;;;;;;;;;;5056558;28;20024;-31
2023/07/13 13:53:25;;;;;;;18.27;4.22;;;;;;;;;;5056432;28;20356;-31
2023/07/13 13:55:52;;;;;;;13.38;4.05;;;;;;;;;;5056802;28;20033;-28
2023/07/13 13:58:19;;;;;;;18.15;3.58;;;;;;;;;;5056566;28;20348;-31
2023/07/13 14:00:46;;;;;;;14.35;3.72;;;;;;;;;;5056526;28;20451;-33
2023/07/13 14:03:18;;;;;;;14.13;4.68;;;;;;;;;;5056379;28;20052;-31
2023/07/13 14:05:44;;;;;;;15.15;4.07;;;;;;;;;;5056234;28;20089;-28
2023/07/13 14:08:15;;;;;;;15.00;4.20;;;;;;;;;;5056429;28;20035;-31
2023/07/13 14:10:41;;;;;;;16.00;3.67;;;;;;;;;;5056573;28;20021;-29
2023/07/13 14:13:31;;;;;;;6.78;3.38;;;;;;;;;;5056118;28;20025;-31
2023/07/13 14:15:58;;;;;;;9.45;3.55;;;;;;;;;;5050772;28;20379;-30
2023/07/13 14:18:24;;;;;;;13.25;3.88;;;;;;;;;;5056104;28;20024;-32
2023/07/13 14:20:52;;;;;;;8.13;3.53;;;;;;;;;;5056029;28;20426;-30
2023/07/13 14:23:18;;;;;;;12.38;3.72;;;;;;;;;;5055794;28;20087;-28
2023/07/13 14:25:46;;;;;;;10.35;2.95;;;;;;;;;;5056097;28;20087;-30
2023/07/13 14:28:23;;;;;;;21.77;4.28;;;;;;;;;;5056155;28;20017;-29
2023/07/13 14:30:50;;;;;;;8.75;3.08;;;;;;;;;;5056151;28;20079;-31
2023/07/13 14:33:16;;;;;;;6.60;3.13;;;;;;;;;;5055656;28;20013;-31
2023/07/13 14:35:42;;;;;;;10.13;2.80;;;;;;;;;;5055043;28;20032;-28
2023/07/13 14:38:11;;;;;;;13.93;3.50;;;;;;;;;;5055420;28;20056;-29
2023/07/13 14:40:37;;;;;;;14.05;3.05;;;;;;;;;;5055821;28;20032;-29
2023/07/13 14:43:03;;;;;;;10.45;4.00;;;;;;;;;;5055770;28;20028;-28